Time;durP1;ratioP1;P1;durP2;ratioP2;P2;SDS_P1;SDS_P2;PMS_P1;PMS_P2;Temp;Humidity;BMP_temperature;BMP_pressure;BME280_temperature;BME280_humidity;BME280_pressure;Samples;Min_cycle;Max_cycle;Signal;HPM_P1;HPM_P2
2021/01/12 00:00:11;;;;;;;23.93;13.99;;;;;;;0.59;62.91;99869.78;336754;112;1964110;-71
2021/01/12 00:01:19;;;;;;;26.28;14.47;;;;;;;0.59;62.84;99869.78;345679;116;1961941;-71
2021/01/12 00:02:25;;;;;;;25.98;14.95;;;;;;;0.60;62.92;99863.47;319075;116;2513986;-70
2021/01/12 00:03:30;;;;;;;27.37;15.65;;;;;;;0.61;62.86;99867.84;344307;115;1964023;-71
2021/01/12 00:04:36;;;;;;;25.20;13.97;;;;;;;0.61;62.87;99871.33;348224;115;1962015;-70
2021/01/12 00:05:42;;;;;;;26.84;14.45;;;;;;;0.60;62.83;99872.28;349242;115;1961915;-71
2021/01/12 00:06:49;;;;;;;25.78;15.16;;;;;;;0.61;62.71;99875.81;347933;115;1963051;-69
2021/01/12 00:07:55;;;;;;;24.43;13.57;;;;;;;0.61;62.61;99875.81;356301;110;1961921;-71
2021/01/12 00:09:03;;;;;;;24.62;14.43;;;;;;;0.61;62.49;99875.81;356823;112;1962099;-70
2021/01/12 00:10:09;;;;;;;26.76;15.22;;;;;;;0.61;62.41;99871.33;358028;109;1964002;-70
2021/01/12 00:11:21;;;;;;;26.13;13.78;;;;;;;0.62;62.36;99878.31;351204;111;2906033;-70
2021/01/12 00:12:26;;;;;;;24.53;13.58;;;;;;;0.61;62.21;99878.47;358542;111;1961986;-70
2021/01/12 00:13:32;;;;;;;25.46;14.73;;;;;;;0.61;62.30;99871.33;362505;111;1962143;-70
2021/01/12 00:14:38;;;;;;;25.07;14.91;;;;;;;0.63;62.40;99871.17;359102;111;1961996;-70
2021/01/12 00:15:43;;;;;;;25.66;15.14;;;;;;;0.63;62.42;99874.66;324914;112;2660884;-70
2021/01/12 00:16:50;;;;;;;26.59;14.96;;;;;;;0.63;62.36;99869.34;360219;112;1962771;-70
2021/01/12 00:17:56;;;;;;;22.31;13.37;;;;;;;0.63;62.36;99866.69;359556;110;1962012;-70
2021/01/12 00:19:02;;;;;;;24.58;14.46;;;;;;;0.63;62.35;99872.00;342211;110;2387666;-70
2021/01/12 00:20:09;;;;;;;30.09;14.50;;;;;;;0.63;62.37;99872.00;351351;110;1961886;-70
2021/01/12 00:21:26;;;;;;;26.63;13.78;;;;;;;0.63;62.39;99874.66;361896;108;1961913;31
2021/01/12 00:22:43;;;;;;;26.42;15.48;;;;;;;0.64;62.39;99872.88;345125;115;1961987;-71
2021/01/12 00:23:48;;;;;;;30.44;16.22;;;;;;;0.65;62.39;99879.86;357456;110;1961961;-70
2021/01/12 00:24:54;;;;;;;24.72;15.62;;;;;;;0.65;62.47;99870.06;324801;112;2553994;-71
2021/01/12 00:25:59;;;;;;;26.29;14.47;;;;;;;0.67;62.44;99874.42;334891;113;1962037;-70
2021/01/12 00:27:05;;;;;;;28.96;14.26;;;;;;;0.67;62.46;99871.76;349762;115;1961960;-70
2021/01/12 00:28:11;;;;;;;26.65;15.25;;;;;;;0.66;62.44;99868.23;348764;114;1961972;-71
2021/01/12 00:29:17;;;;;;;26.20;15.28;;;;;;;0.66;62.43;99870.89;313394;113;2713898;-69
2021/01/12 00:30:23;;;;;;;27.53;16.78;;;;;;;0.65;62.42;99867.41;352988;115;1963034;-70
2021/01/12 00:31:30;;;;;;;28.63;16.32;;;;;;;0.66;62.44;99873.55;352354;112;1961929;-70
2021/01/12 00:32:35;;;;;;;28.79;16.53;;;;;;;0.64;62.49;99873.70;332559;112;2441009;-71
2021/01/12 00:33:41;;;;;;;25.53;15.69;;;;;;;0.65;62.56;99872.72;334836;113;1961982;-70
2021/01/12 00:34:47;;;;;;;26.22;15.62;;;;;;;0.64;62.62;99876.36;352421;113;1963946;-69
2021/01/12 00:35:53;;;;;;;29.73;16.97;;;;;;;0.65;62.70;99871.88;350444;115;1961981;-71
2021/01/12 00:36:59;;;;;;;25.33;15.28;;;;;;;0.66;62.66;99876.21;310359;113;2167833;-70
2021/01/12 00:38:04;;;;;;;30.59;16.85;;;;;;;0.67;62.67;99877.08;352739;115;1963876;-70
2021/01/12 00:39:12;;;;;;;28.88;15.31;;;;;;;0.67;62.64;99875.25;347960;117;1962014;-70
2021/01/12 00:40:17;;;;;;;27.72;15.95;;;;;;;0.67;62.63;99874.42;330315;115;1961986;-70
2021/01/12 00:41:35;;;;;;;27.97;16.81;;;;;;;0.68;62.63;99871.60;353916;112;1962010;-70
2021/01/12 00:42:41;;;;;;;26.55;15.44;;;;;;;0.68;62.42;99876.09;331227;112;2875975;-70
2021/01/12 00:43:46;;;;;;;29.46;17.12;;;;;;;0.68;62.44;99871.60;349937;114;1961985;-70
2021/01/12 00:44:52;;;;;;;26.79;15.77;;;;;;;0.69;62.48;99867.98;351451;115;1962970;-70
2021/01/12 00:45:57;;;;;;;35.13;16.67;;;;;;;0.68;62.45;99870.77;353665;113;1961941;-71
2021/01/12 00:47:04;;;;;;;27.99;15.62;;;;;;;0.66;62.52;99865.58;354124;107;1960842;-71
2021/01/12 00:48:10;;;;;;;26.72;16.24;;;;;;;0.67;62.54;99859.30;334584;117;1964024;-71
2021/01/12 00:49:20;;;;;;;28.51;16.09;;;;;;;0.67;62.52;99871.76;341205;117;1961962;-70
2021/01/12 00:50:27;;;;;;;30.97;15.34;;;;;;;0.68;62.44;99868.95;297726;114;2170144;-69
2021/01/12 00:51:36;;;;;;;26.47;15.51;;;;;;;0.68;62.48;99865.45;339375;117;1961906;-71
2021/01/12 00:52:42;;;;;;;30.37;17.67;;;;;;;0.69;62.49;99867.12;331682;116;1962871;-70
2021/01/12 00:53:47;;;;;;;28.94;17.63;;;;;;;0.70;62.47;99874.14;348867;114;1963065;-70
2021/01/12 00:54:56;;;;;;;31.53;16.55;;;;;;;0.69;62.43;99864.46;306490;113;2807950;-70
2021/01/12 00:56:13;;;;;;;22.82;13.42;;;;;;;0.68;62.42;99866.28;348347;115;1961952;-71
2021/01/12 00:57:18;;;;;;;17.76;10.78;;;;;;;0.68;62.00;99865.45;323774;113;2533974;-70
2021/01/12 00:58:24;;;;;;;24.42;13.42;;;;;;;0.68;61.52;99866.28;328320;108;1960666;-70
2021/01/12 00:59:29;;;;;;;21.77;13.79;;;;;;;0.68;61.44;99866.28;356540;111;1962014;-70
2021/01/12 01:00:36;;;;;;;22.38;13.69;;;;;;;0.70;61.22;99868.82;357199;113;1960996;-70
2021/01/12 01:02:03;;;;;;;18.24;10.69;;;;;;;0.70;61.12;99866.16;343951;113;1963870;-70
2021/01/12 01:03:10;;;;;;;21.02;11.44;;;;;;;0.70;60.89;99861.67;344503;115;1962047;-70
2021/01/12 01:04:17;;;;;;;19.54;11.81;;;;;;;0.70;60.45;99861.67;321390;117;2349057;-70
2021/01/12 01:05:23;;;;;;;18.67;12.06;;;;;;;0.71;60.47;99859.86;338232;116;1962046;-70
2021/01/12 01:06:30;;;;;;;18.53;11.38;;;;;;;0.71;60.30;99863.34;302165;117;2096020;-69
2021/01/12 01:07:35;;;;;;;19.64;11.21;;;;;;;0.71;60.34;99863.34;334638;119;1962015;-70
2021/01/12 01:08:40;;;;;;;16.99;11.09;;;;;;;0.70;59.86;99859.02;334759;119;1963995;-69
2021/01/12 01:09:46;;;;;;;20.29;11.32;;;;;;;0.70;59.93;99863.50;337501;117;1962968;-70
2021/01/12 01:10:52;;;;;;;19.02;11.43;;;;;;;0.70;59.48;99863.50;317062;117;2422010;-69
2021/01/12 01:11:58;;;;;;;17.57;10.92;;;;;;;0.70;59.96;99866.16;337620;117;1962010;-70
2021/01/12 01:13:04;;;;;;;19.82;11.65;;;;;;;0.71;60.01;99862.52;338086;117;1961947;-70
2021/01/12 01:14:10;;;;;;;21.06;12.17;;;;;;;0.71;60.07;99860.69;340642;118;1961988;-70
2021/01/12 01:15:16;;;;;;;22.93;12.58;;;;;;;0.71;59.84;99851.88;301907;117;2210912;-70
2021/01/12 01:16:32;;;;;;;22.46;12.63;;;;;;;0.69;59.71;99854.70;337860;117;1965011;-70
2021/01/12 01:17:39;;;;;;;22.78;14.09;;;;;;;0.65;59.73;99851.45;338886;116;1961996;-69
2021/01/12 01:18:46;;;;;;;21.79;13.59;;;;;;;0.64;60.01;99860.41;339493;120;1962037;-70
2021/01/12 01:19:52;;;;;;;21.36;13.50;;;;;;;0.65;60.23;99856.77;337782;119;1961986;-70
2021/01/12 01:20:57;;;;;;;22.26;12.92;;;;;;;0.66;60.25;99857.60;323982;117;2270028;-72
2021/01/12 01:22:03;;;;;;;23.91;13.96;;;;;;;0.65;60.26;99856.77;322670;117;1962047;-69
2021/01/12 01:23:09;;;;;;;21.37;12.99;;;;;;;0.64;60.33;99860.41;336903;117;1961956;-69
2021/01/12 01:24:15;;;;;;;24.62;13.40;;;;;;;0.64;60.35;99856.92;340046;117;1961932;-71
2021/01/12 01:25:22;;;;;;;21.51;13.86;;;;;;;0.63;60.37;99858.72;334818;110;1961893;-69
2021/01/12 01:26:29;;;;;;;23.17;13.32;;;;;;;0.64;60.47;99859.58;357965;111;1961896;-69
2021/01/12 01:27:34;;;;;;;21.14;13.52;;;;;;;0.64;60.57;99857.76;339297;113;2340044;-70
2021/01/12 01:28:40;;;;;;;23.44;13.17;;;;;;;0.67;60.54;99861.13;348491;110;1961874;-70
2021/01/12 01:29:46;;;;;;;21.98;13.95;;;;;;;0.66;60.65;99862.92;356923;112;1961945;-71
2021/01/12 01:30:55;;;;;;;21.22;12.83;;;;;;;0.65;60.64;99856.77;314335;113;2907989;-70
2021/01/12 01:32:01;;;;;;;25.44;14.66;;;;;;;0.65;60.61;99854.11;350638;113;1961951;-70
2021/01/12 01:33:07;;;;;;;23.62;13.43;;;;;;;0.63;60.67;99858.72;336090;115;2212937;-70
2021/01/12 01:34:12;;;;;;;24.31;14.49;;;;;;;0.64;60.82;99865.73;336804;112;1961999;-70
2021/01/12 01:35:17;;;;;;;24.43;14.08;;;;;;;0.65;60.86;99856.77;348287;113;1962941;-70
2021/01/12 01:36:25;;;;;;;23.96;13.68;;;;;;;0.64;60.90;99860.41;306981;114;2187604;-71
2021/01/12 01:37:35;;;;;;;26.07;14.72;;;;;;;0.64;61.00;99860.41;346176;113;1961983;-69
2021/01/12 01:38:42;;;;;;;27.48;16.30;;;;;;;0.65;61.11;99866.56;354286;105;1960746;-70
2021/01/12 01:39:47;;;;;;;25.94;15.67;;;;;;;0.64;61.17;99863.07;350915;113;1961952;-70
2021/01/12 01:41:00;;;;;;;30.18;16.34;;;;;;;0.67;61.08;99858.47;316532;113;2220047;-69
2021/01/12 01:42:06;;;;;;;28.76;16.87;;;;;;;0.66;61.18;99862.92;351417;114;1963941;-69
2021/01/12 01:43:20;;;;;;;29.38;16.43;;;;;;;0.65;61.24;99855.93;305508;113;2209789;-70
2021/01/12 01:44:27;;;;;;;24.68;15.19;;;;;;;0.67;61.31;99863.78;337222;112;2877992;-70
2021/01/12 01:45:32;;;;;;;29.64;16.11;;;;;;;0.68;60.86;99868.95;353253;114;1961934;-70
2021/01/12 01:46:38;;;;;;;30.39;17.97;;;;;;;0.68;60.84;99854.82;352006;112;1962046;-71
2021/01/12 01:47:45;;;;;;;28.43;16.47;;;;;;;0.66;60.92;99860.26;354141;111;1963927;-71
2021/01/12 01:48:51;;;;;;;29.14;18.45;;;;;;;0.65;61.11;99862.08;354452;113;1961995;-71
2021/01/12 01:49:56;;;;;;;26.30;15.99;;;;;;;0.65;61.24;99861.25;355027;114;1961849;-70
2021/01/12 01:51:04;;;;;;;33.05;18.61;;;;;;;0.65;61.14;99856.77;353867;114;1963966;-70
2021/01/12 01:52:11;;;;;;;33.21;18.09;;;;;;;0.65;61.30;99856.77;350708;116;1962002;-70
2021/01/12 01:53:17;;;;;;;33.59;19.13;;;;;;;0.66;61.28;99860.26;355354;110;1961897;-70
2021/01/12 01:54:23;;;;;;;34.68;17.73;;;;;;;0.64;61.40;99860.41;346229;116;1964033;-71
2021/01/12 01:55:30;;;;;;;29.72;17.49;;;;;;;0.64;61.42;99855.09;350802;116;1962919;-70
2021/01/12 01:56:36;;;;;;;31.71;18.81;;;;;;;0.64;61.53;99857.76;338577;113;1963907;-71
2021/01/12 01:57:42;;;;;;;30.61;18.78;;;;;;;0.65;61.51;99855.93;350540;114;1962989;-68
2021/01/12 01:58:47;;;;;;;34.91;20.66;;;;;;;0.64;61.57;99851.61;351529;114;1961899;-68
2021/01/12 01:59:53;;;;;;;30.81;17.37;;;;;;;0.63;61.57;99845.42;350603;114;1963959;-69
2021/01/12 02:00:59;;;;;;;30.97;18.78;;;;;;;0.62;61.59;99846.41;302140;116;2241007;-69
2021/01/12 02:02:06;;;;;;;31.18;19.13;;;;;;;0.63;61.55;99847.25;337697;119;1961916;-70
2021/01/12 02:03:22;;;;;;;31.18;18.89;;;;;;;0.62;61.61;99845.58;306498;117;2941024;-70
2021/01/12 02:04:31;;;;;;;31.38;17.87;;;;;;;0.62;61.52;99845.58;342419;116;1961952;-70
2021/01/12 02:05:39;;;;;;;36.03;19.31;;;;;;;0.61;61.40;99851.88;312578;116;2045225;-71
2021/01/12 02:06:50;;;;;;;30.92;17.46;;;;;;;0.60;61.55;99844.87;348529;114;1961981;-70
2021/01/12 02:07:59;;;;;;;31.16;18.68;;;;;;;0.62;61.59;99848.23;317364;116;1961965;-70
2021/01/12 02:09:24;;;;;;;34.03;18.27;;;;;;;0.62;61.48;99843.75;327564;115;1961947;-71
2021/01/12 02:10:34;;;;;;;36.49;20.07;;;;;;;0.64;61.24;99849.78;347057;109;1960890;-70
2021/01/12 02:11:46;;;;;;;37.17;20.19;;;;;;;0.63;61.22;99841.93;349082;114;1964001;-71
2021/01/12 02:13:01;;;;;;;;;;;;;;;0.61;61.24;99844.74;362603;111;1961055;-69
2021/01/12 02:14:14;;;;;;;38.69;19.29;;;;;;;0.61;61.12;99842.09;357711;111;1962990;-70
2021/01/12 02:15:24;;;;;;;41.21;21.96;;;;;;;0.62;61.17;99834.95;346255;117;1961944;-71
2021/01/12 02:16:33;;;;;;;39.05;23.09;;;;;;;0.62;61.10;99834.95;340127;111;2882015;-71
2021/01/12 02:17:42;;;;;;;41.86;23.19;;;;;;;0.61;61.17;99836.77;359810;113;1961942;-70
2021/01/12 02:18:49;;;;;;;45.62;24.26;;;;;;;0.61;61.21;99838.59;356389;113;1961981;-70
2021/01/12 02:19:55;;;;;;;40.40;24.09;;;;;;;0.61;61.22;99838.59;323822;112;2679952;-71
2021/01/12 02:21:03;;;;;;;35.15;21.35;;;;;;;0.62;61.18;99834.95;356105;111;1961059;-70
2021/01/12 02:22:09;;;;;;;40.03;21.19;;;;;;;0.61;61.27;99834.11;327419;111;2545916;-70
2021/01/12 02:23:28;;;;;;;39.26;23.25;;;;;;;0.61;61.07;99833.28;355432;111;1961923;-71
2021/01/12 02:24:37;;;;;;;40.07;22.46;;;;;;;0.61;61.16;99833.28;337842;111;1962984;-71
2021/01/12 02:25:45;;;;;;;39.37;21.51;;;;;;;0.61;61.26;99833.28;332893;113;1962756;-71
2021/01/12 02:26:51;;;;;;;39.84;22.16;;;;;;;0.59;61.37;99833.41;310388;113;2190295;-71
2021/01/12 02:27:57;;;;;;;30.60;18.36;;;;;;;0.60;61.42;99829.75;356755;113;1962344;-70
2021/01/12 02:29:03;;;;;;;34.26;19.82;;;;;;;0.61;61.23;99830.62;357169;113;1963984;-78
2021/01/12 02:30:10;;;;;;;34.61;21.02;;;;;;;0.60;61.05;99828.92;354454;113;1961050;-70
2021/01/12 02:31:16;;;;;;;37.26;20.49;;;;;;;0.61;61.23;99833.28;351882;111;1962052;-71
2021/01/12 02:32:22;;;;;;;30.62;18.99;;;;;;;0.62;61.27;99830.46;356498;113;1961912;-72
2021/01/12 02:33:29;;;;;;;30.72;17.42;;;;;;;0.63;61.00;99832.13;343168;113;2200926;-70
2021/01/12 02:34:35;;;;;;;32.11;19.33;;;;;;;0.63;60.82;99825.98;353545;113;1963001;-71
2021/01/12 02:35:44;;;;;;;32.22;18.43;;;;;;;0.62;60.71;99829.62;353790;113;1960986;-70
2021/01/12 02:36:52;;;;;;;32.22;19.19;;;;;;;0.59;60.76;99830.74;358768;113;1961944;-70
2021/01/12 02:37:58;;;;;;;33.06;18.28;;;;;;;0.61;60.87;99822.64;356811;113;1961917;-70
2021/01/12 02:39:04;;;;;;;25.84;15.27;;;;;;;0.61;60.84;99819.98;355690;111;1963029;-70
2021/01/12 02:40:13;;;;;;;26.84;14.64;;;;;;;0.61;60.64;99823.48;357848;111;1961903;-71
2021/01/12 02:41:18;;;;;;;31.17;16.97;;;;;;;0.62;60.25;99813.67;357309;111;1961976;-70
2021/01/12 02:42:25;;;;;;;25.02;15.49;;;;;;;0.61;60.29;99812.84;334122;111;2212004;-70
2021/01/12 02:43:30;;;;;;;28.64;17.13;;;;;;;0.62;60.27;99819.83;354326;111;1962999;-70
2021/01/12 02:44:36;;;;;;;25.12;14.40;;;;;;;0.62;60.18;99811.86;357203;113;1961919;-71
2021/01/12 02:45:42;;;;;;;23.69;14.12;;;;;;;0.61;59.77;99812.84;323115;113;2664004;-71
2021/01/12 02:46:50;;;;;;;25.26;14.26;;;;;;;0.47;59.83;99785.82;359076;113;1961874;-71
2021/01/12 02:47:58;;;;;;;22.46;12.61;;;;;;;0.65;59.41;99813.39;332286;113;2203984;-70
2021/01/12 02:49:05;;;;;;;23.18;12.64;;;;;;;0.65;59.33;99813.39;348055;117;1961885;-70
2021/01/12 02:50:15;;;;;;;20.72;12.12;;;;;;;0.65;59.08;99805.42;350339;115;1961963;-70
2021/01/12 02:51:20;;;;;;;22.03;11.60;;;;;;;0.65;58.67;99805.42;342416;111;1961903;-70
2021/01/12 02:52:26;;;;;;;16.39;9.49;;;;;;;0.64;58.56;99801.93;355696;111;1961967;-71
2021/01/12 02:53:31;;;;;;;20.77;11.36;;;;;;;0.64;58.26;99812.56;358314;113;1961859;-67
2021/01/12 02:54:38;;;;;;;21.57;12.12;;;;;;;0.64;58.26;99806.41;340052;111;2887943;-69
2021/01/12 02:55:43;;;;;;;22.94;12.73;;;;;;;0.65;58.35;99802.77;333795;113;1961965;-69
2021/01/12 02:56:51;;;;;;;24.21;13.26;;;;;;;0.64;58.25;99809.07;355003;113;1962055;-67
2021/01/12 02:57:56;;;;;;;25.69;14.20;;;;;;;0.64;58.31;99804.59;336205;113;2336916;-70
2021/01/12 02:59:01;;;;;;;24.70;13.66;;;;;;;0.64;58.24;99804.59;345475;113;1962776;-70
2021/01/12 03:00:13;;;;;;;25.91;14.96;;;;;;;0.65;58.40;99805.42;355300;111;1961996;-70
2021/01/12 03:01:19;;;;;;;22.42;14.08;;;;;;;0.64;58.37;99795.78;356374;113;1961994;-70
2021/01/12 03:02:26;;;;;;;25.32;15.57;;;;;;;0.65;58.59;99803.59;354991;113;1961972;-70
2021/01/12 03:03:31;;;;;;;26.83;14.09;;;;;;;0.66;58.62;99799.11;354489;111;1962019;-69
2021/01/12 03:04:37;;;;;;;26.37;15.12;;;;;;;0.67;58.74;99792.84;357355;111;1961946;-70
2021/01/12 03:05:43;;;;;;;27.51;16.03;;;;;;;0.67;58.38;99792.84;346921;113;2218864;-70
2021/01/12 03:06:49;;;;;;;25.20;14.68;;;;;;;0.67;58.58;99790.17;356462;113;1963949;-70
2021/01/12 03:07:54;;;;;;;25.83;14.17;;;;;;;0.67;58.39;99784.86;354522;113;1963940;-70
2021/01/12 03:09:00;;;;;;;24.03;13.42;;;;;;;0.65;58.46;99790.30;358770;111;1962887;-69
2021/01/12 03:10:07;;;;;;;26.47;15.54;;;;;;;0.64;58.52;99793.13;331859;115;1961981;-69
2021/01/12 03:11:12;;;;;;;25.27;14.66;;;;;;;0.64;58.63;99791.30;357944;111;1963035;-71
2021/01/12 03:12:19;;;;;;;28.23;15.53;;;;;;;0.65;58.61;99786.81;359783;111;1961996;-69
2021/01/12 03:13:25;;;;;;;24.02;13.66;;;;;;;0.65;58.73;99790.30;347297;111;1961771;-68
2021/01/12 03:14:31;;;;;;;23.47;13.22;;;;;;;0.68;58.30;99783.03;359798;111;1962001;-70
2021/01/12 03:15:39;;;;;;;23.82;14.28;;;;;;;0.68;58.41;99783.88;360070;110;1961955;-69
2021/01/12 03:16:46;;;;;;;23.74;12.69;;;;;;;0.68;58.38;99789.19;360488;110;1961906;-69
2021/01/12 03:17:52;;;;;;;24.13;13.08;;;;;;;0.69;58.21;99788.23;340197;111;2363944;-69
2021/01/12 03:18:58;;;;;;;25.02;13.48;;;;;;;0.69;58.16;99780.25;362417;111;1961965;-69
2021/01/12 03:20:04;;;;;;;22.82;13.67;;;;;;;0.69;58.21;99782.05;361054;111;1961997;-70
2021/01/12 03:21:10;;;;;;;27.12;15.84;;;;;;;0.67;58.19;99782.20;329734;111;2564019;-69
2021/01/12 03:22:16;;;;;;;26.65;14.60;;;;;;;0.67;58.30;99782.20;346434;113;1961938;-71
2021/01/12 03:23:21;;;;;;;26.23;14.54;;;;;;;0.68;58.41;99786.53;352988;111;1961968;-69
2021/01/12 03:24:27;;;;;;;23.21;14.09;;;;;;;0.70;58.42;99783.74;350565;114;1961982;-70
2021/01/12 03:25:33;;;;;;;28.31;15.21;;;;;;;0.69;58.37;99784.70;334903;109;2591001;-70
2021/01/12 03:26:41;;;;;;;25.94;14.67;;;;;;;0.69;58.49;99782.91;345393;114;1961993;-70
2021/01/12 03:27:47;;;;;;;23.27;14.15;;;;;;;0.71;58.52;99786.25;343832;111;2314863;-70
2021/01/12 03:28:53;;;;;;;24.24;14.68;;;;;;;0.71;58.44;99777.44;345142;114;1961963;-69
2021/01/12 03:30:06;;;;;;;24.72;14.62;;;;;;;0.71;58.51;99778.27;360422;109;1961996;-71
2021/01/12 03:31:12;;;;;;;25.66;14.93;;;;;;;0.71;58.45;99783.59;352535;113;1961963;-69
2021/01/12 03:32:18;;;;;;;25.89;15.84;;;;;;;0.72;58.51;99773.81;356461;111;1961975;-71
2021/01/12 03:33:23;;;;;;;26.47;15.22;;;;;;;0.72;58.52;99777.31;363649;111;1962007;-69
2021/01/12 03:34:29;;;;;;;27.36;15.60;;;;;;;0.72;58.45;99773.81;342143;112;2299842;-70
2021/01/12 03:35:35;;;;;;;27.07;15.33;;;;;;;0.73;58.54;99773.66;361802;111;1963991;-70
2021/01/12 03:36:40;;;;;;;24.90;15.02;;;;;;;0.75;58.37;99773.53;360670;111;1962950;-68
2021/01/12 03:37:47;;;;;;;24.31;14.72;;;;;;;0.74;58.26;99758.54;356189;113;1960657;-70
2021/01/12 03:38:52;;;;;;;27.19;15.03;;;;;;;0.72;58.35;99766.67;315131;113;2083295;-72
2021/01/12 03:39:58;;;;;;;26.16;14.86;;;;;;;0.72;58.41;99764.02;359965;110;1961923;-70
2021/01/12 03:41:05;;;;;;;23.76;14.67;;;;;;;0.73;58.41;99764.84;362746;111;1962877;-69
2021/01/12 03:42:11;;;;;;;22.97;13.98;;;;;;;0.72;58.22;99758.70;328753;110;1997042;-70
2021/01/12 03:43:16;;;;;;;25.27;14.10;;;;;;;0.73;58.26;99757.70;362196;110;1960962;-71
2021/01/12 03:44:26;;;;;;;24.46;12.92;;;;;;;0.71;58.29;99758.83;361565;111;1961998;-70
2021/01/12 03:45:32;;;;;;;23.32;13.84;;;;;;;0.72;58.16;99755.20;363024;109;1963028;-69
2021/01/12 03:46:39;;;;;;;24.82;13.24;;;;;;;0.72;58.34;99752.55;350316;109;2391952;-69
2021/01/12 03:47:44;;;;;;;25.00;14.47;;;;;;;0.71;58.37;99754.34;365860;111;1962802;-70
2021/01/12 03:48:51;;;;;;;25.66;13.88;;;;;;;0.70;58.51;99750.02;365069;111;1961013;-70
2021/01/12 03:49:58;;;;;;;26.39;13.74;;;;;;;0.71;58.56;99740.22;328481;111;1975618;-70
2021/01/12 03:51:04;;;;;;;24.01;13.83;;;;;;;0.72;58.60;99748.06;361417;111;1962097;-70
2021/01/12 03:52:20;;;;;;;22.64;13.87;;;;;;;0.74;58.27;99742.59;331725;111;1985142;-70
2021/01/12 03:53:26;;;;;;;21.96;13.33;;;;;;;0.74;58.42;99737.27;347341;113;1965031;-71
2021/01/12 03:54:31;;;;;;;24.28;14.31;;;;;;;0.74;58.32;99738.13;343819;111;1960615;-70
2021/01/12 03:55:38;;;;;;;21.25;11.87;;;;;;;0.73;58.14;99741.75;342889;117;1962934;-70
2021/01/12 03:56:45;;;;;;;23.58;12.24;;;;;;;0.76;58.06;99748.61;355042;113;1963036;-70
2021/01/12 03:57:51;;;;;;;26.08;13.58;;;;;;;0.73;58.00;99741.75;352631;110;1960896;-68
2021/01/12 03:58:57;;;;;;;24.94;13.29;;;;;;;0.72;58.01;99740.09;326558;112;2960989;-69
2021/01/12 04:00:04;;;;;;;25.26;14.59;;;;;;;0.72;58.05;99748.06;352071;113;1962002;-70
2021/01/12 04:01:13;;;;;;;25.24;13.76;;;;;;;0.72;58.04;99752.55;324102;111;2201991;-69
2021/01/12 04:02:19;;;;;;;26.93;13.49;;;;;;;0.70;57.97;99747.36;357630;105;1961960;-69
2021/01/12 04:03:27;;;;;;;22.92;13.13;;;;;;;0.70;58.10;99749.19;325351;114;2565962;-70
2021/01/12 04:04:33;;;;;;;22.31;14.35;;;;;;;0.70;58.09;99743.87;342143;119;1961907;-70
2021/01/12 04:05:39;;;;;;;22.74;13.19;;;;;;;0.68;58.18;99746.66;322964;112;2651029;-70
2021/01/12 04:06:46;;;;;;;23.36;14.50;;;;;;;0.70;58.07;99743.87;349597;114;1962021;-70
2021/01/12 04:07:52;;;;;;;23.31;13.89;;;;;;;0.69;58.09;99747.48;352817;112;1961996;-69
2021/01/12 04:08:58;;;;;;;23.87;14.06;;;;;;;0.68;58.10;99743.99;324230;112;2561912;-70
2021/01/12 04:10:05;;;;;;;25.54;14.93;;;;;;;0.69;57.96;99737.72;337365;114;1962004;-69
2021/01/12 04:11:16;;;;;;;26.16;13.52;;;;;;;0.69;58.00;99739.51;349957;113;1961990;-70
2021/01/12 04:12:22;;;;;;;22.58;13.03;;;;;;;0.68;58.09;99745.81;343581;113;1961986;-69
2021/01/12 04:13:27;;;;;;;21.34;12.74;;;;;;;0.66;58.17;99743.28;356706;111;1970019;-70
2021/01/12 04:14:33;;;;;;;25.48;14.31;;;;;;;0.66;58.17;99735.31;358528;111;1962941;-70
2021/01/12 04:15:38;;;;;;;24.46;14.93;;;;;;;0.66;58.22;99737.97;351746;107;1961034;-70
2021/01/12 04:16:45;;;;;;;26.74;13.22;;;;;;;0.62;58.41;99737.42;311844;115;2098890;-69
2021/01/12 04:17:50;;;;;;;24.75;13.31;;;;;;;0.62;58.44;99742.73;344543;116;1961973;-70
2021/01/12 04:18:55;;;;;;;27.52;16.39;;;;;;;0.62;58.58;99741.91;342885;118;1961861;-70
2021/01/12 04:20:11;;;;;;;26.11;15.72;;;;;;;0.62;58.68;99733.93;344933;116;1962029;-70
2021/01/12 04:21:17;;;;;;;24.86;14.24;;;;;;;0.62;58.86;99736.59;334759;114;2889979;-68
2021/01/12 04:22:22;;;;;;;29.91;15.89;;;;;;;0.63;58.92;99733.77;344080;115;1961985;-70
2021/01/12 04:23:28;;;;;;;26.64;15.50;;;;;;;0.61;59.15;99742.90;347427;115;1963030;-71
2021/01/12 04:24:34;;;;;;;26.33;14.83;;;;;;;0.59;59.15;99735.05;332914;121;1963985;-71
2021/01/12 04:25:40;;;;;;;27.43;14.71;;;;;;;0.59;59.29;99731.56;318458;118;2367982;-71
2021/01/12 04:26:45;;;;;;;27.06;14.59;;;;;;;0.57;59.39;99739.66;335265;118;1961955;-70
2021/01/12 04:27:51;;;;;;;25.66;14.73;;;;;;;0.55;59.61;99732.80;332849;122;1962079;-70
2021/01/12 04:28:58;;;;;;;28.22;16.40;;;;;;;0.56;59.63;99735.34;337231;118;1964913;-70
2021/01/12 04:30:05;;;;;;;30.03;16.33;;;;;;;0.58;59.70;99737.84;304839;118;2002571;-71
2021/01/12 04:31:12;;;;;;;28.11;16.03;;;;;;;0.56;59.85;99734.50;296354;118;2846985;-71
2021/01/12 04:32:18;;;;;;;28.78;16.98;;;;;;;0.55;59.99;99738.12;345769;115;1963928;-71
2021/01/12 04:33:23;;;;;;;28.67;15.80;;;;;;;0.57;59.97;99733.51;343052;115;1961930;-70
2021/01/12 04:34:28;;;;;;;27.70;15.57;;;;;;;0.54;60.44;99742.60;336148;117;1963945;-69
2021/01/12 04:35:35;;;;;;;27.77;16.71;;;;;;;0.56;60.56;99737.16;324696;117;2885993;-70
2021/01/12 04:36:43;;;;;;;28.06;16.63;;;;;;;0.55;60.62;99733.64;341497;111;1959752;-71
2021/01/12 04:37:49;;;;;;;29.48;16.71;;;;;;;0.53;61.04;99735.62;307370;115;2720973;-70
2021/01/12 04:38:55;;;;;;;27.95;16.61;;;;;;;0.53;61.20;99735.62;330149;116;1961998;-71
2021/01/12 04:40:03;;;;;;;26.19;15.67;;;;;;;0.54;61.06;99736.45;336893;118;1961969;-71
2021/01/12 04:41:10;;;;;;;27.18;15.68;;;;;;;0.55;61.09;99727.48;337819;117;1961897;-70
2021/01/12 04:42:16;;;;;;;29.67;17.20;;;;;;;0.55;61.22;99733.64;344297;117;1962961;-70
2021/01/12 04:43:22;;;;;;;31.73;18.32;;;;;;;0.56;61.22;99731.84;325822;115;2350058;-70
2021/01/12 04:44:28;;;;;;;28.91;17.70;;;;;;;0.55;61.29;99733.64;343986;116;1961965;-71
2021/01/12 04:45:34;;;;;;;32.61;18.59;;;;;;;0.55;61.37;99730.98;346083;117;1960812;-71
2021/01/12 04:46:40;;;;;;;27.45;17.22;;;;;;;0.53;61.93;99738.28;306283;115;2125631;-71
2021/01/12 04:47:47;;;;;;;29.36;16.66;;;;;;;0.52;62.17;99731.27;346317;117;1960925;-72
2021/01/12 04:48:52;;;;;;;28.13;16.41;;;;;;;0.53;61.98;99734.75;346084;117;1962077;-71
2021/01/12 04:50:02;;;;;;;31.47;17.44;;;;;;;0.51;61.99;99732.25;344257;116;1961940;-71
2021/01/12 04:51:09;;;;;;;28.99;16.75;;;;;;;0.50;62.09;99730.55;317883;116;1961913;-72
2021/01/12 04:52:15;;;;;;;28.77;16.88;;;;;;;0.51;62.43;99729.59;343824;116;1962974;-71
2021/01/12 04:53:39;;;;;;;31.76;16.94;;;;;;;0.49;62.38;99728.89;340004;118;1964008;-71
2021/01/12 04:54:46;;;;;;;27.93;15.86;;;;;;;0.49;62.32;99728.06;357091;112;1962006;-71
2021/01/12 04:55:55;;;;;;;27.94;16.74;;;;;;;0.49;62.41;99723.58;358046;112;1962003;-70
2021/01/12 04:57:02;;;;;;;29.52;18.49;;;;;;;0.48;62.58;99716.59;363245;108;1961916;-70
2021/01/12 04:58:12;;;;;;;29.55;17.72;;;;;;;0.50;62.63;99709.30;361775;111;1961935;-70
2021/01/12 04:59:22;;;;;;;31.42;17.97;;;;;;;0.50;62.72;99713.78;309128;119;2533944;-70
2021/01/12 05:00:32;;;;;;;28.76;17.69;;;;;;;0.49;62.68;99712.95;340705;117;1963105;-71
2021/01/12 05:01:38;;;;;;;31.83;18.79;;;;;;;0.50;62.85;99708.46;348131;114;1962178;-71
2021/01/12 05:03:04;;;;;;;32.88;19.12;;;;;;;0.49;63.12;99704.97;345550;115;1963921;-71
2021/01/12 05:04:13;;;;;;;33.85;19.29;;;;;;;0.47;63.28;99714.06;301416;117;2207965;-70
2021/01/12 05:05:18;;;;;;;30.27;18.08;;;;;;;0.44;63.37;99709.86;347552;116;1960849;-71